createdAt,value
2022-12-15T00:00:33.715Z,0.00
2022-12-15T00:01:33.781Z,0.00
2022-12-15T00:02:33.953Z,0.00
2022-12-15T00:03:34.630Z,0.00
2022-12-15T00:04:34.128Z,0.00
2022-12-15T00:05:34.297Z,0.00
2022-12-15T00:06:34.527Z,0.00
2022-12-15T00:07:34.590Z,0.00
2022-12-15T00:08:34.715Z,0.00
2022-12-15T00:09:34.856Z,0.00
2022-12-15T00:10:34.998Z,0.00
2022-12-15T00:11:35.196Z,0.00
2022-12-15T00:12:35.283Z,0.00
2022-12-15T00:13:35.455Z,0.00
2022-12-15T00:14:35.516Z,0.00
2022-12-15T00:15:35.695Z,0.00
2022-12-15T00:16:35.927Z,0.00
2022-12-15T00:17:35.971Z,0.00
2022-12-15T00:18:36.122Z,0.00
2022-12-15T00:19:36.295Z,0.00
2022-12-15T00:20:36.433Z,0.00
2022-12-15T00:21:36.529Z,0.00
2022-12-15T00:22:36.675Z,0.00
2022-12-15T00:23:36.814Z,0.00
2022-12-15T00:24:36.970Z,0.00
2022-12-15T00:25:37.232Z,0.00
2022-12-15T00:26:37.254Z,0.00
2022-12-15T00:27:37.406Z,0.00
2022-12-15T00:28:37.542Z,0.00
2022-12-15T00:29:37.689Z,0.00
2022-12-15T00:30:37.803Z,0.00
2022-12-15T00:31:38.026Z,0.00
2022-12-15T00:32:38.134Z,0.00
2022-12-15T00:33:38.234Z,0.00
2022-12-15T00:34:38.387Z,0.00
2022-12-15T00:35:38.491Z,0.00
2022-12-15T00:36:38.671Z,0.00
2022-12-15T00:37:38.812Z,0.00
2022-12-15T00:38:38.873Z,0.00
2022-12-15T00:39:38.958Z,0.00
2022-12-15T00:40:39.112Z,0.00
2022-12-15T00:41:39.268Z,0.00
2022-12-15T00:42:39.430Z,0.00
2022-12-15T00:43:39.567Z,0.00
2022-12-15T00:44:39.760Z,0.00
2022-12-15T00:45:39.836Z,0.00
2022-12-15T00:46:40.059Z,0.00
2022-12-15T00:47:40.119Z,0.00
2022-12-15T00:48:40.207Z,0.00
2022-12-15T00:49:40.469Z,0.00
2022-12-15T00:50:40.587Z,0.00
2022-12-15T00:51:40.631Z,0.00
2022-12-15T00:52:40.782Z,0.00
2022-12-15T00:53:40.877Z,0.00
2022-12-15T00:54:41.028Z,0.00
2022-12-15T00:55:41.120Z,0.00
2022-12-15T00:56:41.298Z,0.00
2022-12-15T00:57:41.437Z,0.00
2022-12-15T00:58:41.576Z,0.00
2022-12-15T00:59:41.744Z,0.00
2022-12-15T01:00:41.934Z,0.00
2022-12-15T01:01:42.247Z,0.00
2022-12-15T01:02:42.436Z,0.00
2022-12-15T01:03:42.534Z,0.00
2022-12-15T01:04:42.509Z,0.00
2022-12-15T01:05:42.615Z,0.00
2022-12-15T01:06:42.713Z,0.00
2022-12-15T01:07:42.841Z,0.00
2022-12-15T01:08:43.023Z,0.00
2022-12-15T01:09:43.096Z,0.00
2022-12-15T01:10:43.256Z,0.00
2022-12-15T01:11:43.391Z,0.00
2022-12-15T01:12:43.529Z,0.00
2022-12-15T01:13:43.650Z,0.00
2022-12-15T01:14:44.871Z,0.00
2022-12-15T01:15:44.056Z,0.00
2022-12-15T01:16:44.188Z,0.00
2022-12-15T01:17:44.230Z,0.00
2022-12-15T01:18:44.380Z,0.00
2022-12-15T01:19:45.495Z,0.00
2022-12-15T01:20:44.620Z,0.00
2022-12-15T01:21:44.767Z,0.00
2022-12-15T01:22:44.879Z,0.00
2022-12-15T01:23:44.980Z,0.00
2022-12-15T01:24:45.134Z,0.00
2022-12-15T01:25:45.220Z,0.00
2022-12-15T01:26:45.372Z,0.00
2022-12-15T01:27:45.463Z,0.00
2022-12-15T01:28:45.569Z,0.00
2022-12-15T01:29:45.700Z,0.00
2022-12-15T01:30:45.849Z,0.00
2022-12-15T01:31:46.016Z,0.00
2022-12-15T01:32:46.580Z,0.00
2022-12-15T01:33:46.188Z,0.00
2022-12-15T01:34:46.336Z,0.00
2022-12-15T01:35:46.530Z,0.00
2022-12-15T01:36:46.698Z,0.00
2022-12-15T01:37:46.828Z,0.00
2022-12-15T01:38:52.268Z,0.00
2022-12-15T01:39:48.066Z,0.00
2022-12-15T01:40:47.215Z,0.00
2022-12-15T01:41:47.377Z,0.00
2022-12-15T01:42:47.486Z,0.00
2022-12-15T01:43:47.586Z,0.00
2022-12-15T01:44:47.725Z,0.00
2022-12-15T01:45:47.824Z,0.00
2022-12-15T01:46:48.031Z,0.00
2022-12-15T01:47:48.215Z,0.00
2022-12-15T01:48:48.326Z,0.00
2022-12-15T01:49:49.191Z,0.00
2022-12-15T01:50:48.554Z,0.00
2022-12-15T01:51:48.745Z,0.00
2022-12-15T01:52:49.581Z,0.00
2022-12-15T01:53:50.131Z,0.00
2022-12-15T01:54:49.195Z,0.00
2022-12-15T01:55:49.884Z,0.00
2022-12-15T01:56:49.453Z,0.00
2022-12-15T01:57:49.602Z,0.00
2022-12-15T01:58:49.722Z,0.00
2022-12-15T01:59:49.871Z,0.00
2022-12-15T02:00:50.061Z,0.00
2022-12-15T02:01:50.529Z,0.00
2022-12-15T02:02:50.411Z,0.00
2022-12-15T02:03:50.444Z,0.00
2022-12-15T02:04:50.542Z,0.00
2022-12-15T02:05:50.690Z,0.00
2022-12-15T02:06:50.807Z,0.00
2022-12-15T02:07:50.932Z,0.00
2022-12-15T02:08:51.011Z,0.00
2022-12-15T02:09:51.140Z,0.00
2022-12-15T02:10:51.282Z,0.00
2022-12-15T02:11:51.450Z,0.00
2022-12-15T02:12:51.617Z,0.00
2022-12-15T02:13:51.759Z,0.00
2022-12-15T02:14:51.887Z,0.00
2022-12-15T02:15:52.020Z,0.00
2022-12-15T02:16:52.162Z,0.00
2022-12-15T02:17:52.329Z,0.00
2022-12-15T02:18:52.460Z,0.00
2022-12-15T02:19:53.341Z,0.00
2022-12-15T02:20:52.786Z,0.00
2022-12-15T02:21:52.889Z,0.00
2022-12-15T02:22:53.023Z,0.00
2022-12-15T02:23:53.177Z,0.00
2022-12-15T02:24:53.357Z,0.00
2022-12-15T02:25:53.446Z,0.00
2022-12-15T02:26:53.614Z,0.00
2022-12-15T02:27:53.776Z,0.00
2022-12-15T02:28:53.919Z,0.00
2022-12-15T02:29:54.067Z,0.00
2022-12-15T02:30:54.204Z,0.00
2022-12-15T02:31:54.456Z,0.00
2022-12-15T02:32:54.478Z,0.00
2022-12-15T02:33:54.607Z,0.00
2022-12-15T02:34:54.805Z,0.00
2022-12-15T02:35:54.843Z,0.00
2022-12-15T02:36:55.007Z,0.00
2022-12-15T02:37:55.144Z,0.00
2022-12-15T02:38:55.283Z,0.00
2022-12-15T02:39:55.424Z,0.00
2022-12-15T02:40:55.576Z,0.00
2022-12-15T02:41:55.684Z,0.00
2022-12-15T02:42:55.823Z,0.00
2022-12-15T02:43:55.951Z,0.00
2022-12-15T02:44:56.112Z,0.00
2022-12-15T02:45:56.280Z,0.00
2022-12-15T02:46:56.351Z,0.00
2022-12-15T02:47:56.424Z,0.00
2022-12-15T02:48:56.579Z,0.00
2022-12-15T02:49:56.719Z,0.00
2022-12-15T02:50:56.873Z,0.00
2022-12-15T02:51:57.044Z,0.00
2022-12-15T02:52:57.195Z,0.00
2022-12-15T02:53:57.314Z,0.00
2022-12-15T02:54:57.461Z,0.00
2022-12-15T02:55:57.583Z,0.00
2022-12-15T02:56:57.708Z,0.00
2022-12-15T02:57:57.799Z,0.00
2022-12-15T02:58:58.006Z,0.00
2022-12-15T02:59:58.085Z,0.00
2022-12-15T03:00:58.252Z,0.00
2022-12-15T03:01:58.607Z,0.00
2022-12-15T03:02:58.582Z,0.00
2022-12-15T03:03:58.606Z,0.00
2022-12-15T03:04:58.790Z,0.00
2022-12-15T03:05:58.863Z,0.00
2022-12-15T03:07:01.171Z,0.00
2022-12-15T03:07:59.127Z,0.00
2022-12-15T03:08:59.293Z,0.00
2022-12-15T03:09:59.502Z,0.00
2022-12-15T03:10:59.587Z,0.00
2022-12-15T03:11:59.686Z,0.00
2022-12-15T03:12:59.814Z,0.00
2022-12-15T03:13:59.947Z,0.00
2022-12-15T03:15:00.126Z,0.00
2022-12-15T03:16:00.319Z,0.00
2022-12-15T03:17:01.171Z,0.00
2022-12-15T03:18:00.450Z,0.00
2022-12-15T03:19:00.578Z,0.00
2022-12-15T03:20:00.721Z,0.00
2022-12-15T03:21:00.839Z,0.00
2022-12-15T03:22:00.984Z,0.00
2022-12-15T03:23:01.143Z,0.00
2022-12-15T03:24:01.282Z,0.00
2022-12-15T03:25:01.423Z,0.00
2022-12-15T03:26:01.585Z,0.00
2022-12-15T03:27:01.746Z,0.00
2022-12-15T03:28:01.866Z,0.00
2022-12-15T03:29:01.966Z,0.00
2022-12-15T03:30:02.120Z,0.00
2022-12-15T03:31:02.274Z,0.00
2022-12-15T03:32:02.493Z,0.00
2022-12-15T03:33:02.590Z,0.00
2022-12-15T03:34:02.685Z,0.00
2022-12-15T03:35:02.839Z,0.00
2022-12-15T03:36:02.955Z,0.00
2022-12-15T03:37:03.069Z,0.00
2022-12-15T03:38:03.172Z,0.00
2022-12-15T03:39:03.330Z,0.00
2022-12-15T03:40:03.431Z,0.00
2022-12-15T03:41:03.561Z,0.00
2022-12-15T03:42:03.701Z,0.00
2022-12-15T03:43:03.838Z,0.00
2022-12-15T03:44:03.984Z,0.00
2022-12-15T03:45:04.851Z,0.00
2022-12-15T03:46:04.362Z,0.00
2022-12-15T03:47:04.418Z,0.00
2022-12-15T03:48:04.561Z,0.00
2022-12-15T03:49:04.694Z,0.00
2022-12-15T03:50:04.790Z,0.00
2022-12-15T03:51:04.919Z,0.00
2022-12-15T03:52:05.067Z,0.00
2022-12-15T03:53:05.168Z,0.00
2022-12-15T03:54:05.387Z,0.00
2022-12-15T03:55:05.425Z,0.00
2022-12-15T03:56:05.573Z,0.00
2022-12-15T03:57:05.677Z,0.00
2022-12-15T03:58:05.847Z,0.00
2022-12-15T03:59:06.046Z,0.00
2022-12-15T04:00:06.926Z,0.00
2022-12-15T04:01:06.348Z,0.00
2022-12-15T04:02:06.570Z,0.00
2022-12-15T04:03:06.615Z,0.00
2022-12-15T04:04:06.684Z,0.00
2022-12-15T04:05:06.851Z,0.00
2022-12-15T04:06:06.996Z,0.00
2022-12-15T04:07:07.113Z,0.00
2022-12-15T04:08:07.266Z,0.00
2022-12-15T04:09:07.403Z,0.00
2022-12-15T04:10:07.503Z,0.00
2022-12-15T04:11:07.703Z,0.00
2022-12-15T04:12:07.805Z,0.00
2022-12-15T04:13:07.936Z,0.00
2022-12-15T04:14:08.084Z,0.00
2022-12-15T04:15:08.192Z,0.00
2022-12-15T04:16:08.292Z,0.00
2022-12-15T04:17:08.509Z,0.00
2022-12-15T04:18:08.572Z,0.00
2022-12-15T04:19:08.720Z,0.00
2022-12-15T04:20:08.873Z,0.00
2022-12-15T04:21:08.977Z,0.00
2022-12-15T04:22:12.554Z,0.00
2022-12-15T04:23:10.228Z,0.00
2022-12-15T04:24:09.362Z,0.00
2022-12-15T04:25:09.541Z,0.00
2022-12-15T04:26:09.692Z,0.00
2022-12-15T04:27:09.851Z,0.00
2022-12-15T04:28:10.002Z,0.00
2022-12-15T04:29:10.137Z,0.00
2022-12-15T04:30:10.279Z,0.00
2022-12-15T04:31:10.477Z,0.00
2022-12-15T04:32:10.592Z,0.00
2022-12-15T04:33:10.717Z,0.00
2022-12-15T04:34:10.863Z,0.00
2022-12-15T04:35:10.990Z,0.00
2022-12-15T04:36:11.098Z,0.00
2022-12-15T04:37:11.260Z,0.00
2022-12-15T04:38:11.357Z,0.00
2022-12-15T04:39:11.525Z,0.00
2022-12-15T04:40:11.651Z,0.00
2022-12-15T04:41:11.735Z,0.00
2022-12-15T04:42:11.866Z,0.00
2022-12-15T04:43:11.994Z,0.00
2022-12-15T04:44:12.124Z,0.00
2022-12-15T04:45:18.626Z,0.00
2022-12-15T04:46:13.480Z,0.00
2022-12-15T04:47:12.536Z,0.00
2022-12-15T04:48:12.706Z,0.00
2022-12-15T04:49:12.866Z,0.00
2022-12-15T04:50:13.014Z,0.00
2022-12-15T04:51:13.191Z,0.00
2022-12-15T04:52:13.248Z,0.00
2022-12-15T04:53:13.394Z,0.00
2022-12-15T04:54:13.534Z,0.00
2022-12-15T04:55:13.669Z,0.00
2022-12-15T04:56:18.430Z,0.00
2022-12-15T04:57:14.904Z,0.00
2022-12-15T04:58:14.051Z,0.00
2022-12-15T04:59:14.253Z,0.00
2022-12-15T05:00:14.332Z,0.00
2022-12-15T05:01:14.485Z,0.00
2022-12-15T05:02:14.694Z,0.00
2022-12-15T05:03:18.362Z,0.00
2022-12-15T05:04:14.935Z,0.00
2022-12-15T05:05:14.971Z,0.00
2022-12-15T05:06:15.119Z,0.00
2022-12-15T05:07:15.229Z,0.00
2022-12-15T05:08:15.339Z,0.00
2022-12-15T05:09:15.485Z,0.00
2022-12-15T05:10:15.608Z,0.00
2022-12-15T05:11:15.720Z,0.00
2022-12-15T05:12:15.900Z,0.00
2022-12-15T05:13:16.029Z,0.00
2022-12-15T05:14:16.229Z,0.00
2022-12-15T05:15:16.310Z,0.00
2022-12-15T05:16:16.569Z,0.00
2022-12-15T05:17:16.652Z,0.00
2022-12-15T05:18:16.749Z,0.00
2022-12-15T05:19:16.848Z,0.00
2022-12-15T05:20:17.713Z,0.00
2022-12-15T05:21:17.170Z,0.00
2022-12-15T05:22:17.320Z,0.00
2022-12-15T05:23:17.477Z,0.00
2022-12-15T05:24:17.577Z,0.00
2022-12-15T05:25:17.746Z,0.00
2022-12-15T05:26:17.863Z,0.00
2022-12-15T05:27:18.028Z,0.00
2022-12-15T05:28:18.182Z,0.00
2022-12-15T05:29:18.356Z,0.00
2022-12-15T05:30:18.467Z,0.00
2022-12-15T05:31:18.644Z,0.00
2022-12-15T05:32:18.707Z,0.00
2022-12-15T05:33:18.796Z,0.00
2022-12-15T05:34:18.928Z,0.00
2022-12-15T05:35:19.105Z,0.00
2022-12-15T05:36:19.207Z,0.00
2022-12-15T05:37:19.338Z,0.00
2022-12-15T05:38:19.508Z,0.00
2022-12-15T05:39:19.597Z,0.00
2022-12-15T05:40:19.723Z,0.00
2022-12-15T05:41:19.891Z,0.00
2022-12-15T05:42:20.030Z,0.00
2022-12-15T05:43:26.214Z,0.00
2022-12-15T05:44:21.405Z,0.00
2022-12-15T05:45:20.553Z,0.00
2022-12-15T05:46:20.759Z,0.00
2022-12-15T05:47:20.821Z,0.00
2022-12-15T05:48:20.992Z,0.00
2022-12-15T05:49:21.123Z,0.00
2022-12-15T05:50:21.259Z,0.00
2022-12-15T05:51:21.463Z,0.00
2022-12-15T05:52:21.612Z,0.00
2022-12-15T05:53:21.759Z,0.00
2022-12-15T05:54:21.894Z,0.00
2022-12-15T05:55:22.033Z,0.00
2022-12-15T05:56:22.225Z,0.00
2022-12-15T05:57:22.324Z,0.00
2022-12-15T05:58:22.397Z,0.00
2022-12-15T05:59:22.558Z,0.00
2022-12-15T06:00:22.657Z,0.00
2022-12-15T06:01:22.864Z,0.00
2022-12-15T06:02:22.993Z,0.00
2022-12-15T06:03:23.098Z,0.00
2022-12-15T06:04:23.299Z,0.00
2022-12-15T06:05:23.406Z,0.00
2022-12-15T06:06:23.537Z,0.00
2022-12-15T06:07:23.688Z,0.00
2022-12-15T06:08:23.808Z,0.00
2022-12-15T06:09:23.940Z,0.00
2022-12-15T06:10:24.025Z,0.00
2022-12-15T06:11:24.167Z,0.00
2022-12-15T06:12:24.326Z,0.00
2022-12-15T06:13:24.486Z,0.00
2022-12-15T06:14:24.590Z,0.00
2022-12-15T06:15:24.727Z,0.00
2022-12-15T06:16:24.933Z,0.00
2022-12-15T06:17:25.009Z,0.00
2022-12-15T06:18:25.170Z,0.00
2022-12-15T06:19:25.315Z,0.00
2022-12-15T06:20:25.527Z,0.00
2022-12-15T06:21:25.618Z,0.00
2022-12-15T06:22:25.779Z,0.00
2022-12-15T06:23:25.935Z,0.00
2022-12-15T06:24:26.087Z,0.00
2022-12-15T06:25:26.214Z,0.00
2022-12-15T06:26:26.414Z,0.00
2022-12-15T06:27:26.497Z,0.00
2022-12-15T06:28:26.637Z,0.00
2022-12-15T06:29:26.856Z,0.00
2022-12-15T06:30:26.843Z,0.00
2022-12-15T06:31:27.151Z,0.00
2022-12-15T06:32:27.140Z,0.00
2022-12-15T06:33:27.312Z,0.00
2022-12-15T06:34:27.403Z,0.00
2022-12-15T06:35:27.467Z,0.00
2022-12-15T06:36:28.013Z,0.00
2022-12-15T06:37:27.773Z,0.00
2022-12-15T06:38:28.001Z,0.00
2022-12-15T06:39:28.022Z,0.00
2022-12-15T06:40:30.118Z,0.00
2022-12-15T06:41:28.271Z,0.00
2022-12-15T06:42:28.411Z,0.00
2022-12-15T06:43:28.875Z,0.00
2022-12-15T06:44:28.685Z,0.00
2022-12-15T06:45:28.773Z,0.00
2022-12-15T06:46:29.043Z,0.00
2022-12-15T06:47:29.286Z,0.00
2022-12-15T06:48:29.206Z,0.00
2022-12-15T06:49:30.018Z,0.00
2022-12-15T06:50:30.211Z,0.00
2022-12-15T06:51:29.606Z,0.00
2022-12-15T06:52:30.448Z,0.00
2022-12-15T06:53:31.014Z,0.00
2022-12-15T06:54:30.749Z,0.00
2022-12-15T06:55:30.855Z,0.00
2022-12-15T06:56:34.151Z,0.00
2022-12-15T06:57:30.370Z,0.00
2022-12-15T06:58:30.536Z,0.00
2022-12-15T06:59:30.597Z,0.00
2022-12-15T07:00:30.725Z,0.00
2022-12-15T07:01:31.872Z,0.00
2022-12-15T07:02:31.187Z,0.00
2022-12-15T07:03:32.005Z,0.00
2022-12-15T07:04:31.296Z,0.00
2022-12-15T07:05:31.334Z,0.00
2022-12-15T07:06:31.530Z,0.00
2022-12-15T07:07:33.096Z,0.00
2022-12-15T07:08:37.933Z,0.00
2022-12-15T07:09:32.879Z,0.00
2022-12-15T07:10:32.004Z,0.00
2022-12-15T07:11:32.151Z,0.00
2022-12-15T07:12:33.044Z,0.00
2022-12-15T07:13:33.073Z,0.00
2022-12-15T07:14:32.683Z,0.00
2022-12-15T07:15:32.844Z,0.00
2022-12-15T07:16:33.166Z,0.00
2022-12-15T07:17:33.123Z,0.00
2022-12-15T07:18:33.259Z,0.00
2022-12-15T07:19:33.401Z,5.62
2022-12-15T07:20:33.541Z,5.62
2022-12-15T07:21:33.615Z,5.62
2022-12-15T07:22:33.754Z,5.62
2022-12-15T07:23:53.662Z,5.62
2022-12-15T07:24:35.062Z,5.62
2022-12-15T07:25:34.203Z,5.62
2022-12-15T07:26:34.343Z,5.62
2022-12-15T07:27:34.441Z,11.25
2022-12-15T07:28:34.921Z,11.25
2022-12-15T07:29:34.716Z,11.25
2022-12-15T07:30:38.738Z,11.25
2022-12-15T07:31:34.975Z,11.25
2022-12-15T07:32:35.093Z,11.25
2022-12-15T07:33:35.226Z,16.88
2022-12-15T07:34:35.317Z,16.88
2022-12-15T07:35:35.468Z,16.88
2022-12-15T07:36:35.593Z,16.88
2022-12-15T07:37:35.677Z,22.50
2022-12-15T07:38:37.294Z,22.50
2022-12-15T07:39:35.940Z,22.50
2022-12-15T07:40:36.070Z,22.50
2022-12-15T07:41:36.189Z,28.12
2022-12-15T07:42:36.322Z,28.12
2022-12-15T07:43:37.177Z,28.12
2022-12-15T07:44:36.538Z,33.75
2022-12-15T07:45:36.712Z,33.75
2022-12-15T07:46:36.851Z,33.75
2022-12-15T07:47:36.908Z,33.75
2022-12-15T07:48:37.059Z,39.38
2022-12-15T07:49:37.177Z,39.38
2022-12-15T07:50:37.285Z,39.38
2022-12-15T07:51:37.396Z,45.00
2022-12-15T07:52:37.617Z,45.00
2022-12-15T07:53:44.687Z,45.00
2022-12-15T07:54:37.749Z,50.62
2022-12-15T07:56:05.716Z,50.62
2022-12-15T07:56:39.431Z,50.62
2022-12-15T07:57:38.125Z,56.25
2022-12-15T07:58:38.325Z,56.25
2022-12-15T07:59:38.358Z,56.25
2022-12-15T08:00:39.270Z,61.88
2022-12-15T08:01:38.827Z,61.88
2022-12-15T08:02:38.871Z,61.88
2022-12-15T08:03:39.629Z,67.50
2022-12-15T08:04:39.026Z,67.50
2022-12-15T08:05:39.195Z,73.12
2022-12-15T08:06:39.295Z,73.12
2022-12-15T08:07:39.461Z,73.12
2022-12-15T08:08:39.583Z,73.12
2022-12-15T08:09:39.735Z,78.75
2022-12-15T08:10:39.828Z,78.75
2022-12-15T08:11:39.923Z,78.75
2022-12-15T08:12:40.038Z,84.38
2022-12-15T08:14:41.996Z,90.00
2022-12-15T08:15:40.393Z,90.00
2022-12-15T08:16:40.673Z,90.00
2022-12-15T08:17:40.703Z,95.62
2022-12-15T08:18:40.795Z,95.62
2022-12-15T08:19:40.944Z,101.25
2022-12-15T08:20:41.079Z,101.25
2022-12-15T08:21:41.235Z,101.25
2022-12-15T08:22:41.374Z,106.88
2022-12-15T08:23:41.459Z,106.88
2022-12-15T08:24:41.561Z,106.88
2022-12-15T08:25:41.711Z,112.50
2022-12-15T08:26:41.821Z,112.50
2022-12-15T08:27:41.989Z,118.12
2022-12-15T08:28:42.099Z,118.12
2022-12-15T08:29:51.344Z,123.75
2022-12-15T08:30:43.312Z,123.75
2022-12-15T08:31:42.485Z,123.75
2022-12-15T08:32:46.068Z,129.38
2022-12-15T08:33:43.753Z,129.38
2022-12-15T08:34:42.830Z,129.38
2022-12-15T08:35:56.372Z,135.00
2022-12-15T08:36:44.054Z,135.00
2022-12-15T08:37:43.189Z,135.00
2022-12-15T08:38:43.319Z,140.62
2022-12-15T08:39:43.431Z,140.62
2022-12-15T08:40:43.535Z,140.62
2022-12-15T08:41:43.658Z,146.25
2022-12-15T08:42:43.817Z,146.25
2022-12-15T08:43:48.455Z,146.25
2022-12-15T08:44:45.063Z,151.88
2022-12-15T08:45:44.252Z,151.88
2022-12-15T08:46:44.246Z,151.88
2022-12-15T08:47:44.443Z,157.50
2022-12-15T08:48:44.545Z,157.50
2022-12-15T08:49:44.645Z,163.12
2022-12-15T08:50:44.756Z,163.12
2022-12-15T08:51:44.919Z,168.75
2022-12-15T08:53:06.672Z,168.75
2022-12-15T08:53:46.674Z,168.75
2022-12-15T08:54:45.226Z,174.38
2022-12-15T08:55:45.368Z,174.38
2022-12-15T08:56:45.515Z,180.00
2022-12-15T08:57:45.695Z,185.62
2022-12-15T08:58:45.816Z,180.00
2022-12-15T08:59:45.932Z,180.00
2022-12-15T09:00:46.027Z,185.62
2022-12-15T09:01:46.278Z,185.62
2022-12-15T09:02:46.243Z,191.25
2022-12-15T09:03:46.382Z,196.88
2022-12-15T09:04:46.559Z,196.88
2022-12-15T09:05:46.598Z,196.88
2022-12-15T09:06:46.764Z,208.12
2022-12-15T09:07:46.804Z,247.50
2022-12-15T09:08:50.146Z,371.25
2022-12-15T09:09:47.038Z,466.88
2022-12-15T09:10:47.145Z,511.88
2022-12-15T09:11:48.273Z,540.00
2022-12-15T09:12:47.372Z,517.50
2022-12-15T09:13:47.573Z,478.12
2022-12-15T09:14:47.655Z,438.75
2022-12-15T09:16:11.808Z,382.50
2022-12-15T09:16:50.490Z,438.75
2022-12-15T09:17:48.107Z,506.25
2022-12-15T09:18:48.227Z,596.25
2022-12-15T09:19:48.331Z,658.12
2022-12-15T09:20:48.545Z,624.38
2022-12-15T09:21:48.580Z,635.62
2022-12-15T09:22:50.424Z,669.38
2022-12-15T09:23:48.788Z,770.62
2022-12-15T09:24:48.888Z,945.00
2022-12-15T09:25:49.081Z,945.00
2022-12-15T09:26:49.149Z,691.88
2022-12-15T09:27:49.309Z,506.25
2022-12-15T09:28:50.214Z,444.38
2022-12-15T09:29:49.550Z,421.88
2022-12-15T09:30:49.748Z,393.75
2022-12-15T09:31:49.786Z,371.25
2022-12-15T09:32:49.889Z,365.62
2022-12-15T09:33:50.047Z,354.38
2022-12-15T09:34:50.159Z,343.12
2022-12-15T09:35:50.286Z,337.50
2022-12-15T09:36:50.398Z,326.25
2022-12-15T09:37:52.050Z,326.25
2022-12-15T09:38:50.607Z,320.62
2022-12-15T09:39:50.784Z,315.00
2022-12-15T09:40:50.887Z,309.38
2022-12-15T09:41:50.977Z,309.38
2022-12-15T09:42:59.780Z,309.38
2022-12-15T09:43:52.555Z,309.38
2022-12-15T09:44:51.297Z,309.38
2022-12-15T09:45:51.548Z,309.38
2022-12-15T09:46:51.559Z,315.00
2022-12-15T09:47:51.708Z,315.00
2022-12-15T09:48:51.819Z,320.62
2022-12-15T09:49:51.976Z,343.12
2022-12-15T09:50:52.136Z,376.88
2022-12-15T09:51:52.245Z,438.75
2022-12-15T09:52:52.394Z,506.25
2022-12-15T09:53:55.541Z,568.12
2022-12-15T09:54:52.732Z,652.50
2022-12-15T09:55:52.809Z,759.38
2022-12-15T09:56:52.957Z,888.75
2022-12-15T09:57:53.104Z,1023.75
2022-12-15T09:58:53.226Z,1096.88
2022-12-15T09:59:53.374Z,1125.00
2022-12-15T10:00:53.497Z,1181.25
2022-12-15T10:01:53.679Z,1231.88
2022-12-15T10:02:53.805Z,1299.38
2022-12-15T10:03:54.015Z,1355.62
2022-12-15T10:04:54.037Z,1406.25
2022-12-15T10:06:55.334Z,1535.62
2022-12-15T10:07:54.456Z,1845.00
2022-12-15T10:08:54.568Z,2064.38
2022-12-15T10:09:54.693Z,2131.88
2022-12-15T10:10:54.833Z,2131.88
2022-12-15T10:11:54.976Z,2160.00
2022-12-15T10:13:01.755Z,2064.38
2022-12-15T10:13:56.193Z,2013.75
2022-12-15T10:14:55.341Z,1980.00
2022-12-15T10:15:55.568Z,1968.75
2022-12-15T10:16:55.611Z,2092.50
2022-12-15T10:17:55.771Z,1940.62
2022-12-15T10:18:59.444Z,1440.00
2022-12-15T10:19:57.107Z,1383.75
2022-12-15T10:20:56.244Z,1310.62
2022-12-15T10:21:56.422Z,1299.38
2022-12-15T10:22:56.567Z,1316.25
2022-12-15T10:23:56.780Z,1366.88
2022-12-15T10:25:12.198Z,1732.50
2022-12-15T10:25:57.945Z,2092.50
2022-12-15T10:26:57.109Z,1693.12
2022-12-15T10:27:57.172Z,1383.75
2022-12-15T10:28:57.264Z,1271.25
2022-12-15T10:29:57.455Z,1248.75
2022-12-15T10:30:57.585Z,1620.00
2022-12-15T10:31:57.679Z,2283.75
2022-12-15T10:32:57.804Z,2806.88
2022-12-15T10:33:57.949Z,2452.50
2022-12-15T10:34:58.100Z,1822.50
2022-12-15T10:35:58.183Z,860.62
2022-12-15T10:36:58.301Z,500.62
2022-12-15T10:37:58.460Z,478.12
2022-12-15T10:38:58.610Z,472.50
2022-12-15T10:39:58.734Z,461.25
2022-12-15T10:40:58.887Z,455.62
2022-12-15T10:41:59.022Z,455.62
2022-12-15T10:42:59.142Z,455.62
2022-12-15T10:43:59.239Z,450.00
2022-12-15T10:44:59.362Z,455.62
2022-12-15T10:45:59.537Z,466.88
2022-12-15T10:46:59.669Z,461.25
2022-12-15T10:47:59.848Z,466.88
2022-12-15T10:48:59.981Z,483.75
2022-12-15T10:50:00.144Z,495.00
2022-12-15T10:51:00.253Z,506.25
2022-12-15T10:52:00.435Z,511.88
2022-12-15T10:53:00.500Z,551.25
2022-12-15T10:54:00.673Z,652.50
2022-12-15T10:55:00.745Z,956.25
2022-12-15T10:56:00.882Z,1558.12
2022-12-15T10:57:01.010Z,2019.38
2022-12-15T10:58:01.161Z,2148.75
2022-12-15T10:59:01.318Z,2165.62
2022-12-15T11:00:01.438Z,2193.75
2022-12-15T11:01:01.580Z,2272.50
2022-12-15T11:02:01.850Z,2306.25
2022-12-15T11:03:02.282Z,2424.38
2022-12-15T11:04:02.182Z,2407.50
2022-12-15T11:05:02.198Z,2295.00
2022-12-15T11:06:02.361Z,2328.75
2022-12-15T11:07:02.473Z,2424.38
2022-12-15T11:08:02.598Z,2604.38
2022-12-15T11:09:02.757Z,2486.25
2022-12-15T11:10:02.908Z,2885.62
2022-12-15T11:11:07.676Z,2649.38
2022-12-15T11:12:03.227Z,2615.62
2022-12-15T11:13:03.330Z,2733.75
2022-12-15T11:14:03.481Z,2919.38
2022-12-15T11:15:03.591Z,3015.00
2022-12-15T11:16:03.715Z,2576.25
2022-12-15T11:17:03.861Z,2666.25
2022-12-15T11:18:04.013Z,2851.88
2022-12-15T11:19:04.155Z,2840.62
2022-12-15T11:20:04.360Z,2964.38
2022-12-15T11:21:04.468Z,2576.25
2022-12-15T11:22:04.607Z,1738.12
2022-12-15T11:23:06.127Z,1265.62
2022-12-15T11:24:04.868Z,1248.75
2022-12-15T11:25:05.029Z,1091.25
2022-12-15T11:26:07.309Z,596.25
2022-12-15T11:27:05.359Z,506.25
2022-12-15T11:28:05.439Z,495.00
2022-12-15T11:29:05.596Z,500.62
2022-12-15T11:30:05.724Z,506.25
2022-12-15T11:31:05.857Z,511.88
2022-12-15T11:32:07.461Z,500.62
2022-12-15T11:33:06.150Z,500.62
2022-12-15T11:34:06.295Z,500.62
2022-12-15T11:35:06.447Z,500.62
2022-12-15T11:36:06.629Z,500.62
2022-12-15T11:37:06.698Z,506.25
2022-12-15T11:38:06.796Z,511.88
2022-12-15T11:39:06.980Z,523.12
2022-12-15T11:40:07.054Z,517.50
2022-12-15T11:41:07.556Z,517.50
2022-12-15T11:42:07.345Z,523.12
2022-12-15T11:43:07.497Z,523.12
2022-12-15T11:44:07.665Z,517.50
2022-12-15T11:45:07.774Z,500.62
2022-12-15T11:46:07.913Z,500.62
2022-12-15T11:47:08.066Z,495.00
2022-12-15T11:48:08.175Z,489.38
2022-12-15T11:49:08.324Z,495.00
2022-12-15T11:50:08.495Z,500.62
2022-12-15T11:51:08.603Z,517.50
2022-12-15T11:52:08.754Z,573.75
2022-12-15T11:53:08.859Z,585.00
2022-12-15T11:54:09.002Z,528.75
2022-12-15T11:55:09.094Z,517.50
2022-12-15T11:56:09.254Z,506.25
2022-12-15T11:57:09.421Z,495.00
2022-12-15T11:58:09.575Z,495.00
2022-12-15T11:59:09.694Z,495.00
2022-12-15T12:00:09.841Z,500.62
2022-12-15T12:01:10.010Z,500.62
2022-12-15T12:02:10.240Z,511.88
2022-12-15T12:03:10.382Z,551.25
2022-12-15T12:04:10.491Z,579.38
2022-12-15T12:05:10.623Z,1119.38
2022-12-15T12:06:10.812Z,1473.75
2022-12-15T12:07:11.024Z,1411.88
2022-12-15T12:08:11.053Z,804.38
2022-12-15T12:09:11.192Z,618.75
2022-12-15T12:10:11.363Z,607.50
2022-12-15T12:11:11.585Z,945.00
2022-12-15T12:12:11.711Z,1164.38
2022-12-15T12:13:11.780Z,1108.12
2022-12-15T12:14:12.160Z,1299.38
2022-12-15T12:15:12.049Z,1198.12
2022-12-15T12:16:12.220Z,843.75
2022-12-15T12:17:12.381Z,995.62
2022-12-15T12:18:12.550Z,1310.62
2022-12-15T12:19:12.745Z,1018.12
2022-12-15T12:20:12.821Z,708.75
2022-12-15T12:21:12.979Z,579.38
2022-12-15T12:22:13.130Z,573.75
2022-12-15T12:23:13.228Z,731.25
2022-12-15T12:24:13.358Z,1231.88
2022-12-15T12:25:13.530Z,1659.38
2022-12-15T12:26:13.697Z,2283.75
2022-12-15T12:27:14.004Z,1957.50
2022-12-15T12:28:13.970Z,1597.50
2022-12-15T12:29:14.128Z,1839.38
2022-12-15T12:30:14.289Z,2362.50
2022-12-15T12:31:14.447Z,2964.38
2022-12-15T12:32:14.559Z,3144.38
2022-12-15T12:33:14.719Z,2953.12
2022-12-15T12:34:14.817Z,2801.25
2022-12-15T12:35:31.676Z,2829.38
2022-12-15T12:36:16.132Z,2930.62
2022-12-15T12:37:15.259Z,2958.75
2022-12-15T12:38:15.419Z,2930.62
2022-12-15T12:39:15.580Z,3003.75
2022-12-15T12:40:15.667Z,2986.88
2022-12-15T12:41:15.860Z,2857.50
2022-12-15T12:42:15.999Z,2806.88
2022-12-15T12:43:16.145Z,3009.38
2022-12-15T12:44:16.370Z,3256.88
2022-12-15T12:45:16.449Z,3493.12
2022-12-15T12:46:16.536Z,3121.88
2022-12-15T12:47:16.769Z,2846.25
2022-12-15T12:48:16.825Z,3391.88
2022-12-15T12:49:22.885Z,3470.62
2022-12-15T12:50:18.138Z,2919.38
2022-12-15T12:51:17.218Z,2728.12
2022-12-15T12:52:17.309Z,2835.00
2022-12-15T12:53:17.458Z,2829.38
2022-12-15T12:54:17.570Z,2761.88
2022-12-15T12:55:17.691Z,2745.00
2022-12-15T12:56:17.850Z,2851.88
2022-12-15T12:57:18.009Z,2925.00
2022-12-15T12:58:18.118Z,3166.88